sensor_id;sensor_type;location;lat;lon;timestamp;pressure;altitude;pressure_sealevel;temperature;humidity
77626;BME280;66794;43.764;10.436;2023-02-28T00:01:23;101821.53;;;8.71;48.51
77626;BME280;66794;43.764;10.436;2023-02-28T00:03:49;101830.31;;;8.73;48.04
77626;BME280;66794;43.764;10.436;2023-02-28T00:06:15;101820.38;;;8.73;47.99
77626;BME280;66794;43.764;10.436;2023-02-28T00:08:40;101786.47;;;8.40;48.44
77626;BME280;66794;43.764;10.436;2023-02-28T00:11:09;101823.03;;;8.63;48.78
77626;BME280;66794;43.764;10.436;2023-02-28T00:13:37;101815.78;;;8.64;48.14
77626;BME280;66794;43.764;10.436;2023-02-28T00:16:06;101822.94;;;8.75;48.17
77626;BME280;66794;43.764;10.436;2023-02-28T00:18:32;101764.78;;;8.30;47.94
77626;BME280;66794;43.764;10.436;2023-02-28T00:20:58;101810.66;;;8.51;49.27
77626;BME280;66794;43.764;10.436;2023-02-28T00:23:24;101771.34;;;8.28;49.22
77626;BME280;66794;43.764;10.436;2023-02-28T00:25:50;101806.66;;;8.46;49.57
77626;BME280;66794;43.764;10.436;2023-02-28T00:28:16;101728.91;;;8.09;48.47
77626;BME280;66794;43.764;10.436;2023-02-28T00:30:42;101775.59;;;8.30;49.06
77626;BME280;66794;43.764;10.436;2023-02-28T00:33:08;101806.41;;;8.58;49.01
77626;BME280;66794;43.764;10.436;2023-02-28T00:35:33;101792.56;;;8.42;50.42
77626;BME280;66794;43.764;10.436;2023-02-28T00:37:59;101776.84;;;8.26;49.89
77626;BME280;66794;43.764;10.436;2023-02-28T00:40:24;101781.31;;;8.37;49.84
77626;BME280;66794;43.764;10.436;2023-02-28T00:42:49;101809.53;;;8.54;49.96
77626;BME280;66794;43.764;10.436;2023-02-28T00:45:15;101806.16;;;8.71;48.21
77626;BME280;66794;43.764;10.436;2023-02-28T00:47:40;101780.25;;;8.49;49.29
77626;BME280;66794;43.764;10.436;2023-02-28T00:50:06;101754.53;;;8.24;49.46
77626;BME280;66794;43.764;10.436;2023-02-28T00:52:32;101773.22;;;8.37;49.61
77626;BME280;66794;43.764;10.436;2023-02-28T00:54:57;101784.75;;;8.39;49.76
77626;BME280;66794;43.764;10.436;2023-02-28T00:57:23;101746.75;;;8.21;50.02
77626;BME280;66794;43.764;10.436;2023-02-28T00:59:48;101777.53;;;8.49;49.61
77626;BME280;66794;43.764;10.436;2023-02-28T01:02:14;101771.25;;;8.39;49.29
77626;BME280;66794;43.764;10.436;2023-02-28T01:04:39;101766.84;;;8.38;49.54
77626;BME280;66794;43.764;10.436;2023-02-28T01:07:05;101770.44;;;8.48;48.93
77626;BME280;66794;43.764;10.436;2023-02-28T01:09:30;101736.06;;;8.20;49.66
77626;BME280;66794;43.764;10.436;2023-02-28T01:11:56;101763.59;;;8.44;49.08
77626;BME280;66794;43.764;10.436;2023-02-28T01:14:22;101716.28;;;8.09;49.24
77626;BME280;66794;43.764;10.436;2023-02-28T01:16:47;101742.75;;;8.15;50.23
77626;BME280;66794;43.764;10.436;2023-02-28T01:19:13;101769.47;;;8.28;50.65
77626;BME280;66794;43.764;10.436;2023-02-28T01:21:38;101786.47;;;8.40;50.09
77626;BME280;66794;43.764;10.436;2023-02-28T01:24:04;101745.84;;;8.21;49.87
77626;BME280;66794;43.764;10.436;2023-02-28T01:26:31;101771.00;;;8.52;49.37
77626;BME280;66794;43.764;10.436;2023-02-28T01:28:56;101761.25;;;8.30;50.19
77626;BME280;66794;43.764;10.436;2023-02-28T01:31:23;101797.00;;;8.53;50.45
77626;BME280;66794;43.764;10.436;2023-02-28T01:33:49;101771.03;;;8.31;50.18
77626;BME280;66794;43.764;10.436;2023-02-28T01:36:21;101764.34;;;8.25;49.90
77626;BME280;66794;43.764;10.436;2023-02-28T01:38:47;101805.38;;;8.50;49.66
77626;BME280;66794;43.764;10.436;2023-02-28T01:41:22;101802.03;;;8.67;48.94
77626;BME280;66794;43.764;10.436;2023-02-28T01:46:14;101808.00;;;8.71;48.17
77626;BME280;66794;43.764;10.436;2023-02-28T01:48:44;101785.78;;;8.57;48.37
77626;BME280;66794;43.764;10.436;2023-02-28T01:51:16;101790.84;;;8.41;49.72
77626;BME280;66794;43.764;10.436;2023-02-28T01:53:47;101766.13;;;8.36;50.85
77626;BME280;66794;43.764;10.436;2023-02-28T01:56:17;101758.09;;;8.25;49.65
77626;BME280;66794;43.764;10.436;2023-02-28T01:58:51;101775.66;;;8.40;49.72
77626;BME280;66794;43.764;10.436;2023-02-28T02:01:18;101783.06;;;8.38;49.76
77626;BME280;66794;43.764;10.436;2023-02-28T02:03:54;101770.25;;;8.40;49.74
77626;BME280;66794;43.764;10.436;2023-02-28T02:06:22;101769.56;;;8.38;50.45
77626;BME280;66794;43.764;10.436;2023-02-28T02:08:48;101798.84;;;8.52;49.68
77626;BME280;66794;43.764;10.436;2023-02-28T02:11:17;101767.78;;;8.27;49.80
77626;BME280;66794;43.764;10.436;2023-02-28T02:39:43;101811.91;;;8.47;50.84
77626;BME280;66794;43.764;10.436;2023-02-28T02:42:20;101805.00;;;8.54;51.78
77626;BME280;66794;43.764;10.436;2023-02-28T02:44:58;101778.34;;;8.40;51.20
77626;BME280;66794;43.764;10.436;2023-02-28T02:47:29;101770.63;;;8.35;52.89
77626;BME280;66794;43.764;10.436;2023-02-28T02:49:58;101778.81;;;8.45;50.54
77626;BME280;66794;43.764;10.436;2023-02-28T02:52:34;101788.91;;;8.43;50.12
77626;BME280;66794;43.764;10.436;2023-02-28T02:55:01;101768.00;;;8.45;50.93
77626;BME280;66794;43.764;10.436;2023-02-28T02:57:36;101790.91;;;8.51;51.05
77626;BME280;66794;43.764;10.436;2023-02-28T03:00:04;101805.94;;;8.53;51.22
77626;BME280;66794;43.764;10.436;2023-02-28T03:02:35;101761.69;;;8.35;51.58
77626;BME280;66794;43.764;10.436;2023-02-28T03:05:13;101780.22;;;8.39;51.42
77626;BME280;66794;43.764;10.436;2023-02-28T03:07:39;101776.31;;;8.32;51.36
77626;BME280;66794;43.764;10.436;2023-02-28T03:10:35;101811.94;;;8.57;51.74
77626;BME280;66794;43.764;10.436;2023-02-28T03:21:17;101795.22;;;8.32;54.09
77626;BME280;66794;43.764;10.436;2023-02-28T03:26:18;101789.53;;;8.35;54.76
77626;BME280;66794;43.764;10.436;2023-02-28T03:28:56;101751.81;;;8.14;54.92
77626;BME280;66794;43.764;10.436;2023-02-28T03:31:39;101770.75;;;8.24;54.21
77626;BME280;66794;43.764;10.436;2023-02-28T03:34:11;101746.75;;;8.21;53.76
77626;BME280;66794;43.764;10.436;2023-02-28T03:36:43;101763.69;;;8.33;53.79
77626;BME280;66794;43.764;10.436;2023-02-28T03:39:14;101783.50;;;8.43;54.55
77626;BME280;66794;43.764;10.436;2023-02-28T03:41:52;101784.06;;;8.47;52.97
77626;BME280;66794;43.764;10.436;2023-02-28T03:44:33;101767.63;;;8.29;53.08
77626;BME280;66794;43.764;10.436;2023-02-28T03:47:09;101762.53;;;8.35;53.39
77626;BME280;66794;43.764;10.436;2023-02-28T03:49:46;101779.88;;;8.33;54.47
77626;BME280;66794;43.764;10.436;2023-02-28T03:52:16;101750.75;;;8.27;54.57
77626;BME280;66794;43.764;10.436;2023-02-28T03:54:50;101769.34;;;8.30;54.65
77626;BME280;66794;43.764;10.436;2023-02-28T04:00:10;101767.97;;;8.05;55.23
77626;BME280;66794;43.764;10.436;2023-02-28T04:02:37;101768.41;;;8.10;56.04
77626;BME280;66794;43.764;10.436;2023-02-28T04:05:03;101778.94;;;8.13;55.89
77626;BME280;66794;43.764;10.436;2023-02-28T04:07:32;101764.84;;;8.09;55.83
77626;BME280;66794;43.764;10.436;2023-02-28T04:09:58;101777.44;;;8.30;52.85
77626;BME280;66794;43.764;10.436;2023-02-28T04:12:24;101787.38;;;8.29;52.98
77626;BME280;66794;43.764;10.436;2023-02-28T04:14:49;101783.53;;;8.22;53.42
77626;BME280;66794;43.764;10.436;2023-02-28T04:17:16;101768.47;;;8.29;53.07
77626;BME280;66794;43.764;10.436;2023-02-28T04:19:41;101786.19;;;8.53;52.10
77626;BME280;66794;43.764;10.436;2023-02-28T04:22:08;101782.78;;;8.51;52.54
77626;BME280;66794;43.764;10.436;2023-02-28T04:24:33;101778.69;;;8.56;51.01
77626;BME280;66794;43.764;10.436;2023-02-28T04:26:58;101761.25;;;8.30;52.39
77626;BME280;66794;43.764;10.436;2023-02-28T04:29:26;101792.03;;;8.48;51.97
77626;BME280;66794;43.764;10.436;2023-02-28T04:31:53;101782.34;;;8.46;51.37
77626;BME280;66794;43.764;10.436;2023-02-28T04:34:20;101770.97;;;8.42;51.91
77626;BME280;66794;43.764;10.436;2023-02-28T04:36:47;101762.34;;;8.58;51.17
77626;BME280;66794;43.764;10.436;2023-02-28T04:39:15;101747.81;;;8.39;51.75
77626;BME280;66794;43.764;10.436;2023-02-28T04:41:40;101779.81;;;8.44;51.64
77626;BME280;66794;43.764;10.436;2023-02-28T04:44:06;101768.25;;;8.42;53.10
77626;BME280;66794;43.764;10.436;2023-02-28T04:46:31;101763.09;;;8.29;52.13
77626;BME280;66794;43.764;10.436;2023-02-28T04:48:57;101761.38;;;8.28;52.91
77626;BME280;66794;43.764;10.436;2023-02-28T04:51:23;101785.75;;;8.48;52.45
77626;BME280;66794;43.764;10.436;2023-02-28T04:53:48;101782.09;;;8.49;52.43
77626;BME280;66794;43.764;10.436;2023-02-28T04:56:15;101773.41;;;8.45;52.15
77626;BME280;66794;43.764;10.436;2023-02-28T04:58:41;101775.16;;;8.65;52.17
77626;BME280;66794;43.764;10.436;2023-02-28T05:01:27;101809.19;;;8.47;53.19
77626;BME280;66794;43.764;10.436;2023-02-28T05:03:54;101812.44;;;8.41;53.84
77626;BME280;66794;43.764;10.436;2023-02-28T05:06:21;101813.75;;;8.47;52.68
77626;BME280;66794;43.764;10.436;2023-02-28T05:08:47;101793.38;;;8.33;53.12
77626;BME280;66794;43.764;10.436;2023-02-28T05:11:28;101826.00;;;8.51;53.00
77626;BME280;66794;43.764;10.436;2023-02-28T05:14:04;101788.16;;;8.41;52.51
77626;BME280;66794;43.764;10.436;2023-02-28T05:16:30;101797.69;;;8.45;52.04
77626;BME280;66794;43.764;10.436;2023-02-28T05:18:56;101808.53;;;8.55;52.03
77626;BME280;66794;43.764;10.436;2023-02-28T05:21:33;101803.66;;;8.39;52.69
77626;BME280;66794;43.764;10.436;2023-02-28T05:24:01;101796.41;;;8.39;53.02
77626;BME280;66794;43.764;10.436;2023-02-28T05:26:28;101796.53;;;8.38;53.79
77626;BME280;66794;43.764;10.436;2023-02-28T05:28:54;101778.72;;;8.35;52.95
77626;BME280;66794;43.764;10.436;2023-02-28T05:31:19;101787.06;;;8.43;52.94
77626;BME280;66794;43.764;10.436;2023-02-28T05:33:45;101769.78;;;8.35;53.12
77626;BME280;66794;43.764;10.436;2023-02-28T05:36:10;101792.84;;;8.39;53.74
77626;BME280;66794;43.764;10.436;2023-02-28T05:38:36;101810.66;;;8.30;55.02
77626;BME280;66794;43.764;10.436;2023-02-28T05:41:05;101777.19;;;8.33;54.48
77626;BME280;66794;43.764;10.436;2023-02-28T05:43:31;101802.09;;;8.46;54.36
77626;BME280;66794;43.764;10.436;2023-02-28T05:45:57;101786.25;;;8.32;54.13
77626;BME280;66794;43.764;10.436;2023-02-28T05:48:22;101798.25;;;8.39;54.81
77626;BME280;66794;43.764;10.436;2023-02-28T05:50:48;101785.38;;;8.22;54.49
77626;BME280;66794;43.764;10.436;2023-02-28T05:53:13;101775.03;;;8.27;54.16
77626;BME280;66794;43.764;10.436;2023-02-28T05:55:39;101776.31;;;8.32;54.72
77626;BME280;66794;43.764;10.436;2023-02-28T05:58:06;101803.09;;;8.45;54.52
77626;BME280;66794;43.764;10.436;2023-02-28T06:00:31;101814.03;;;8.43;55.03
77626;BME280;66794;43.764;10.436;2023-02-28T06:02:57;101714.13;;;8.03;53.88
77626;BME280;66794;43.764;10.436;2023-02-28T06:05:26;101812.53;;;8.60;53.36
77626;BME280;66794;43.764;10.436;2023-02-28T06:07:51;101786.19;;;8.43;54.53
77626;BME280;66794;43.764;10.436;2023-02-28T06:10:17;101749.00;;;8.16;54.03
77626;BME280;66794;43.764;10.436;2023-02-28T06:12:42;101752.53;;;8.16;53.81
77626;BME280;66794;43.764;10.436;2023-02-28T06:15:17;101821.16;;;8.45;54.97
77626;BME280;66794;43.764;10.436;2023-02-28T06:17:42;101831.69;;;8.57;54.59
77626;BME280;66794;43.764;10.436;2023-02-28T06:20:09;101823.28;;;8.51;54.48
77626;BME280;66794;43.764;10.436;2023-02-28T06:22:36;101790.00;;;8.40;53.64
77626;BME280;66794;43.764;10.436;2023-02-28T06:25:03;101798.16;;;8.50;53.86
77626;BME280;66794;43.764;10.436;2023-02-28T06:27:30;101841.53;;;8.68;53.96
77626;BME280;66794;43.764;10.436;2023-02-28T06:29:56;101823.59;;;8.57;54.96
77626;BME280;66794;43.764;10.436;2023-02-28T06:32:21;101846.22;;;8.66;55.00
77626;BME280;66794;43.764;10.436;2023-02-28T06:34:47;101807.94;;;8.51;54.62
77626;BME280;66794;43.764;10.436;2023-02-28T06:37:12;101826.47;;;8.65;54.58
77626;BME280;66794;43.764;10.436;2023-02-28T06:39:38;101831.69;;;10.22;73.27
77626;BME280;66794;43.764;10.436;2023-02-28T06:42:04;101828.69;;;9.01;54.39
77626;BME280;66794;43.764;10.436;2023-02-28T06:44:29;101823.94;;;8.74;55.14
77626;BME280;66794;43.764;10.436;2023-02-28T06:47:01;101866.34;;;8.92;54.96
77626;BME280;66794;43.764;10.436;2023-02-28T06:49:29;101820.34;;;8.63;54.18
77626;BME280;66794;43.764;10.436;2023-02-28T06:51:55;101837.13;;;8.67;54.90
77626;BME280;66794;43.764;10.436;2023-02-28T06:54:20;101816.03;;;8.51;55.20
77626;BME280;66794;43.764;10.436;2023-02-28T06:56:46;101842.16;;;8.81;54.04
77626;BME280;66794;43.764;10.436;2023-02-28T06:59:12;101879.88;;;8.92;55.29
77626;BME280;66794;43.764;10.436;2023-02-28T07:01:38;101828.13;;;8.97;54.44
77626;BME280;66794;43.764;10.436;2023-02-28T07:04:04;101868.66;;;9.16;53.60
77626;BME280;66794;43.764;10.436;2023-02-28T07:06:31;101864.28;;;9.35;53.32
77626;BME280;66794;43.764;10.436;2023-02-28T07:08:56;101817.44;;;9.05;53.23
77626;BME280;66794;43.764;10.436;2023-02-28T07:11:24;101850.34;;;9.49;53.59
77626;BME280;66794;43.764;10.436;2023-02-28T07:13:54;101870.56;;;9.55;52.20
77626;BME280;66794;43.764;10.436;2023-02-28T07:16:20;101883.66;;;9.59;51.92
77626;BME280;66794;43.764;10.436;2023-02-28T07:18:46;101838.69;;;9.48;51.15
77626;BME280;66794;43.764;10.436;2023-02-28T07:21:12;101839.41;;;9.41;50.48
77626;BME280;66794;43.764;10.436;2023-02-28T07:23:38;101843.94;;;9.60;49.56
77626;BME280;66794;43.764;10.436;2023-02-28T07:26:05;101840.81;;;9.55;50.67
77626;BME280;66794;43.764;10.436;2023-02-28T07:28:31;101851.34;;;9.48;50.76
77626;BME280;66794;43.764;10.436;2023-02-28T07:30:56;101872.00;;;9.68;52.03
77626;BME280;66794;43.764;10.436;2023-02-28T07:33:22;101849.63;;;9.57;51.46
77626;BME280;66794;43.764;10.436;2023-02-28T07:35:49;101872.56;;;9.62;50.42
77626;BME280;66794;43.764;10.436;2023-02-28T07:38:15;101863.56;;;9.62;50.93
77626;BME280;66794;43.764;10.436;2023-02-28T07:40:40;101843.09;;;9.59;50.34
77626;BME280;66794;43.764;10.436;2023-02-28T07:43:06;101846.06;;;9.56;49.49
77626;BME280;66794;43.764;10.436;2023-02-28T07:45:31;101863.84;;;9.78;49.57
77626;BME280;66794;43.764;10.436;2023-02-28T07:48:00;101805.06;;;9.51;48.81
77626;BME280;66794;43.764;10.436;2023-02-28T07:50:25;101853.59;;;9.82;49.44
77626;BME280;66794;43.764;10.436;2023-02-28T07:52:54;101870.41;;;9.95;50.61
77626;BME280;66794;43.764;10.436;2023-02-28T07:55:19;101835.09;;;9.77;48.39
77626;BME280;66794;43.764;10.436;2023-02-28T07:57:45;101874.50;;;10.09;48.82
77626;BME280;66794;43.764;10.436;2023-02-28T08:00:11;101864.19;;;10.32;56.23
77626;BME280;66794;43.764;10.436;2023-02-28T08:02:38;101865.91;;;10.23;48.56
77626;BME280;66794;43.764;10.436;2023-02-28T08:05:04;101830.09;;;9.92;48.25
77626;BME280;66794;43.764;10.436;2023-02-28T08:07:30;101813.59;;;9.85;47.58
77626;BME280;66794;43.764;10.436;2023-02-28T08:09:57;101868.81;;;10.02;49.41
77626;BME280;66794;43.764;10.436;2023-02-28T08:12:23;101848.44;;;9.98;49.05
77626;BME280;66794;43.764;10.436;2023-02-28T08:14:49;101906.13;;;10.27;49.50
77626;BME280;66794;43.764;10.436;2023-02-28T08:17:16;101840.63;;;9.95;49.71
77626;BME280;66794;43.764;10.436;2023-02-28T08:19:42;101860.97;;;10.09;49.22
77626;BME280;66794;43.764;10.436;2023-02-28T08:22:09;101839.03;;;10.02;49.75
77626;BME280;66794;43.764;10.436;2023-02-28T08:24:34;101895.28;;;10.27;48.95
77626;BME280;66794;43.764;10.436;2023-02-28T08:27:01;101852.69;;;10.10;49.56
77626;BME280;66794;43.764;10.436;2023-02-28T08:29:26;101859.38;;;10.25;49.93
77626;BME280;66794;43.764;10.436;2023-02-28T08:31:52;101868.66;;;10.13;49.68
77626;BME280;66794;43.764;10.436;2023-02-28T08:34:18;101890.72;;;10.28;50.22
77626;BME280;66794;43.764;10.436;2023-02-28T08:36:43;101878.56;;;10.42;49.40
77626;BME280;66794;43.764;10.436;2023-02-28T08:39:12;101867.47;;;10.35;48.84
77626;BME280;66794;43.764;10.436;2023-02-28T08:41:38;101837.53;;;10.37;49.70
77626;BME280;66794;43.764;10.436;2023-02-28T08:44:03;101857.03;;;10.50;49.87
77626;BME280;66794;43.764;10.436;2023-02-28T08:46:29;101869.25;;;10.54;48.33
77626;BME280;66794;43.764;10.436;2023-02-28T08:48:55;101860.88;;;10.47;48.24
77626;BME280;66794;43.764;10.436;2023-02-28T08:51:24;101884.38;;;10.47;48.78
77626;BME280;66794;43.764;10.436;2023-02-28T08:53:54;101827.59;;;10.18;48.53
77626;BME280;66794;43.764;10.436;2023-02-28T08:56:20;101886.66;;;10.51;49.64
77626;BME280;66794;43.764;10.436;2023-02-28T08:58:48;101882.00;;;10.44;49.15
77626;BME280;66794;43.764;10.436;2023-02-28T09:01:22;101871.84;;;10.46;47.89
77626;BME280;66794;43.764;10.436;2023-02-28T09:03:49;101878.81;;;10.48;47.52
77626;BME280;66794;43.764;10.436;2023-02-28T09:06:15;101888.78;;;10.58;47.33
77626;BME280;66794;43.764;10.436;2023-02-28T09:08:41;101859.44;;;10.43;47.82
77626;BME280;66794;43.764;10.436;2023-02-28T09:11:07;101892.91;;;10.62;48.69
77626;BME280;66794;43.764;10.436;2023-02-28T09:13:33;101888.22;;;10.82;47.53
77626;BME280;66794;43.764;10.436;2023-02-28T09:16:01;101893.66;;;11.09;49.32
77626;BME280;66794;43.764;10.436;2023-02-28T09:18:27;101876.50;;;10.91;46.87
77626;BME280;66794;43.764;10.436;2023-02-28T09:20:52;101901.28;;;10.96;47.55
77626;BME280;66794;43.764;10.436;2023-02-28T09:23:18;101864.84;;;10.80;47.51
77626;BME280;66794;43.764;10.436;2023-02-28T09:25:52;101873.41;;;11.03;46.60
77626;BME280;66794;43.764;10.436;2023-02-28T09:28:19;101857.28;;;10.84;46.74
77626;BME280;66794;43.764;10.436;2023-02-28T09:30:47;101886.19;;;10.93;47.73
77626;BME280;66794;43.764;10.436;2023-02-28T09:33:13;101887.63;;;11.15;46.55
77626;BME280;66794;43.764;10.436;2023-02-28T09:35:39;101871.44;;;11.23;47.41
77626;BME280;66794;43.764;10.436;2023-02-28T09:38:05;101860.97;;;11.11;47.36
77626;BME280;66794;43.764;10.436;2023-02-28T09:40:40;101861.69;;;11.48;46.68
77626;BME280;66794;43.764;10.436;2023-02-28T09:43:13;101855.16;;;11.41;45.69
77626;BME280;66794;43.764;10.436;2023-02-28T09:45:42;101883.88;;;11.44;45.85
77626;BME280;66794;43.764;10.436;2023-02-28T09:48:25;101855.97;;;11.33;45.40
77626;BME280;66794;43.764;10.436;2023-02-28T09:51:02;101894.47;;;11.55;46.25
77626;BME280;66794;43.764;10.436;2023-02-28T09:53:31;101878.59;;;11.60;45.50
77626;BME280;66794;43.764;10.436;2023-02-28T09:56:08;101896.97;;;12.02;45.89
77626;BME280;66794;43.764;10.436;2023-02-28T09:58:46;101860.66;;;12.03;45.93
77626;BME280;66794;43.764;10.436;2023-02-28T10:03:57;101874.00;;;12.22;46.21
77626;BME280;66794;43.764;10.436;2023-02-28T10:06:41;101871.44;;;12.13;45.71
77626;BME280;66794;43.764;10.436;2023-02-28T10:09:19;101852.53;;;12.03;45.27
77626;BME280;66794;43.764;10.436;2023-02-28T10:11:50;101847.56;;;11.98;43.12
77626;BME280;66794;43.764;10.436;2023-02-28T10:14:26;101861.19;;;12.06;44.91
77626;BME280;66794;43.764;10.436;2023-02-28T10:17:04;101853.00;;;12.24;46.00
77626;BME280;66794;43.764;10.436;2023-02-28T10:22:12;101883.63;;;12.69;41.90
77626;BME280;66794;43.764;10.436;2023-02-28T10:24:50;101873.63;;;12.17;43.43
77626;BME280;66794;43.764;10.436;2023-02-28T10:27:22;101874.44;;;12.09;44.05
77626;BME280;66794;43.764;10.436;2023-02-28T10:29:51;101883.09;;;12.65;43.70
77626;BME280;66794;43.764;10.436;2023-02-28T10:32:19;101878.66;;;12.56;43.58
77626;BME280;66794;43.764;10.436;2023-02-28T10:34:52;101880.44;;;12.73;45.14
77626;BME280;66794;43.764;10.436;2023-02-28T10:37:20;101888.97;;;12.86;44.60
77626;BME280;66794;43.764;10.436;2023-02-28T10:39:46;101897.06;;;12.70;43.42
77626;BME280;66794;43.764;10.436;2023-02-28T10:42:27;101901.16;;;12.74;42.14
77626;BME280;66794;43.764;10.436;2023-02-28T10:45:17;101903.03;;;13.16;41.64
77626;BME280;66794;43.764;10.436;2023-02-28T10:53:37;101895.50;;;13.02;43.04
77626;BME280;66794;43.764;10.436;2023-02-28T11:01:37;101899.31;;;12.83;44.22
77626;BME280;66794;43.764;10.436;2023-02-28T11:06:42;101902.78;;;12.33;44.50
77626;BME280;66794;43.764;10.436;2023-02-28T11:09:50;101890.00;;;12.25;45.18
77626;BME280;66794;43.764;10.436;2023-02-28T11:12:31;101884.72;;;11.98;43.96
77626;BME280;66794;43.764;10.436;2023-02-28T11:21:02;101851.50;;;12.64;44.03
77626;BME280;66794;43.764;10.436;2023-02-28T11:23:30;101864.19;;;12.89;43.22
77626;BME280;66794;43.764;10.436;2023-02-28T11:26:00;101856.56;;;12.59;44.04
77626;BME280;66794;43.764;10.436;2023-02-28T11:28:31;101855.25;;;12.71;43.90
77626;BME280;66794;43.764;10.436;2023-02-28T11:36:12;101867.63;;;12.57;44.39
77626;BME280;66794;43.764;10.436;2023-02-28T11:38:39;101818.47;;;12.85;44.68
77626;BME280;66794;43.764;10.436;2023-02-28T11:41:16;101839.63;;;12.65;44.67
77626;BME280;66794;43.764;10.436;2023-02-28T11:46:56;101844.38;;;12.71;44.41
77626;BME280;66794;43.764;10.436;2023-02-28T11:49:40;101852.00;;;13.02;42.93
77626;BME280;66794;43.764;10.436;2023-02-28T11:55:16;101835.41;;;13.29;42.77
77626;BME280;66794;43.764;10.436;2023-02-28T12:08:46;101834.06;;;12.83;42.97
77626;BME280;66794;43.764;10.436;2023-02-28T12:19:52;101798.66;;;12.58;43.60
77626;BME280;66794;43.764;10.436;2023-02-28T12:25:30;101760.16;;;12.79;41.86
77626;BME280;66794;43.764;10.436;2023-02-28T12:28:02;101770.59;;;13.00;41.85
77626;BME280;66794;43.764;10.436;2023-02-28T12:30:32;101754.09;;;12.43;43.16
77626;BME280;66794;43.764;10.436;2023-02-28T12:33:12;101728.25;;;13.14;44.52
77626;BME280;66794;43.764;10.436;2023-02-28T12:35:54;101746.53;;;12.71;44.46
77626;BME280;66794;43.764;10.436;2023-02-28T12:38:38;101755.81;;;13.11;44.29
77626;BME280;66794;43.764;10.436;2023-02-28T12:41:12;101743.91;;;13.20;43.28
77626;BME280;66794;43.764;10.436;2023-02-28T12:43:46;101693.25;;;13.19;44.08
77626;BME280;66794;43.764;10.436;2023-02-28T12:46:21;101739.41;;;14.09;41.15
77626;BME280;66794;43.764;10.436;2023-02-28T12:48:53;101710.25;;;12.88;40.96
77626;BME280;66794;43.764;10.436;2023-02-28T12:51:22;101742.53;;;12.83;40.78
77626;BME280;66794;43.764;10.436;2023-02-28T13:10:38;101694.91;;;13.69;39.88
77626;BME280;66794;43.764;10.436;2023-02-28T13:13:04;101734.25;;;13.26;39.91
77626;BME280;66794;43.764;10.436;2023-02-28T13:15:29;101701.06;;;13.63;40.17
77626;BME280;66794;43.764;10.436;2023-02-28T13:17:58;101703.41;;;13.74;39.70
77626;BME280;66794;43.764;10.436;2023-02-28T13:20:32;101663.31;;;13.19;41.36
77626;BME280;66794;43.764;10.436;2023-02-28T13:22:59;101705.22;;;13.90;40.08
77626;BME280;66794;43.764;10.436;2023-02-28T13:28:13;101702.69;;;13.80;40.81
77626;BME280;66794;43.764;10.436;2023-02-28T13:31:05;101697.00;;;13.42;41.84
77626;BME280;66794;43.764;10.436;2023-02-28T13:33:33;101710.91;;;13.15;41.48
77626;BME280;66794;43.764;10.436;2023-02-28T13:38:40;101734.66;;;12.64;42.33
77626;BME280;66794;43.764;10.436;2023-02-28T13:44:20;101726.38;;;12.31;44.65
77626;BME280;66794;43.764;10.436;2023-02-28T14:07:31;101674.75;;;13.94;41.88
77626;BME280;66794;43.764;10.436;2023-02-28T14:10:04;101657.53;;;13.55;40.72
77626;BME280;66794;43.764;10.436;2023-02-28T14:15:39;101695.97;;;12.28;43.69
77626;BME280;66794;43.764;10.436;2023-02-28T14:20:48;101659.41;;;12.81;42.74
77626;BME280;66794;43.764;10.436;2023-02-28T14:25:52;101701.81;;;13.96;41.94
77626;BME280;66794;43.764;10.436;2023-02-28T14:31:13;101695.34;;;14.36;40.71
77626;BME280;66794;43.764;10.436;2023-02-28T14:33:47;101686.31;;;14.05;41.77
77626;BME280;66794;43.764;10.436;2023-02-28T14:36:26;101676.06;;;14.15;41.19
77626;BME280;66794;43.764;10.436;2023-02-28T14:38:57;101683.38;;;13.51;41.81
77626;BME280;66794;43.764;10.436;2023-02-28T14:44:01;101662.63;;;13.58;41.31
77626;BME280;66794;43.764;10.436;2023-02-28T14:46:38;101670.50;;;13.28;42.34
77626;BME280;66794;43.764;10.436;2023-02-28T14:49:06;101632.69;;;12.35;44.13
77626;BME280;66794;43.764;10.436;2023-02-28T14:51:35;101625.94;;;12.56;43.21
77626;BME280;66794;43.764;10.436;2023-02-28T14:54:01;101671.22;;;12.31;44.59
77626;BME280;66794;43.764;10.436;2023-02-28T14:56:35;101654.09;;;11.88;46.13
77626;BME280;66794;43.764;10.436;2023-02-28T14:59:02;101667.13;;;12.27;46.48
77626;BME280;66794;43.764;10.436;2023-02-28T15:01:28;101652.97;;;12.82;44.74
77626;BME280;66794;43.764;10.436;2023-02-28T15:03:58;101657.38;;;12.83;43.04
77626;BME280;66794;43.764;10.436;2023-02-28T15:06:24;101668.09;;;13.41;43.04
77626;BME280;66794;43.764;10.436;2023-02-28T15:09:06;101662.69;;;13.33;42.46
77626;BME280;66794;43.764;10.436;2023-02-28T15:11:32;101668.09;;;13.09;43.33
77626;BME280;66794;43.764;10.436;2023-02-28T15:13:58;101671.50;;;12.95;42.68
77626;BME280;66794;43.764;10.436;2023-02-28T15:16:31;101663.69;;;13.32;42.31
77626;BME280;66794;43.764;10.436;2023-02-28T15:18:59;101661.28;;;12.56;43.45
77626;BME280;66794;43.764;10.436;2023-02-28T15:21:34;101658.13;;;12.26;45.21
77626;BME280;66794;43.764;10.436;2023-02-28T15:26:32;101671.63;;;11.76;45.70
77626;BME280;66794;43.764;10.436;2023-02-28T15:29:00;101667.00;;;11.68;47.10
77626;BME280;66794;43.764;10.436;2023-02-28T15:31:31;101676.97;;;11.59;47.74
77626;BME280;66794;43.764;10.436;2023-02-28T15:33:57;101661.91;;;11.65;47.55
77626;BME280;66794;43.764;10.436;2023-02-28T15:36:28;101656.88;;;11.44;46.65
77626;BME280;66794;43.764;10.436;2023-02-28T15:38:53;101652.00;;;11.30;47.31